sensor_id;sensor_type;location;lat;lon;timestamp;P1;durP1;ratioP1;P2;durP2;ratioP2
8562;SDS011;16392;52.508;13.468;2022-10-16T00:01:10;430.05;;;110.57;;
8562;SDS011;16392;52.508;13.468;2022-10-16T00:03:38;428.45;;;113.15;;
8562;SDS011;16392;52.508;13.468;2022-10-16T00:06:06;430.35;;;118.25;;
8562;SDS011;16392;52.508;13.468;2022-10-16T00:08:33;427.65;;;112.45;;
8562;SDS011;16392;52.508;13.468;2022-10-16T00:11:01;430.95;;;115.93;;
8562;SDS011;16392;52.508;13.468;2022-10-16T00:13:29;431.23;;;118.88;;
8562;SDS011;16392;52.508;13.468;2022-10-16T00:15:56;426.98;;;109.65;;
8562;SDS011;16392;52.508;13.468;2022-10-16T00:18:25;430.75;;;117.63;;
8562;SDS011;16392;52.508;13.468;2022-10-16T00:20:52;432.83;;;118.03;;
8562;SDS011;16392;52.508;13.468;2022-10-16T00:23:19;432.92;;;121.50;;
8562;SDS011;16392;52.508;13.468;2022-10-16T00:25:54;433.27;;;119.50;;
8562;SDS011;16392;52.508;13.468;2022-10-16T00:28:21;431.05;;;116.40;;
8562;SDS011;16392;52.508;13.468;2022-10-16T00:30:48;434.25;;;121.28;;
8562;SDS011;16392;52.508;13.468;2022-10-16T00:33:14;432.98;;;118.22;;
8562;SDS011;16392;52.508;13.468;2022-10-16T00:35:42;433.67;;;118.77;;
8562;SDS011;16392;52.508;13.468;2022-10-16T00:38:09;432.10;;;115.93;;
8562;SDS011;16392;52.508;13.468;2022-10-16T00:40:36;430.40;;;115.45;;
8562;SDS011;16392;52.508;13.468;2022-10-16T00:43:07;433.25;;;117.47;;
8562;SDS011;16392;52.508;13.468;2022-10-16T00:45:38;436.40;;;123.07;;
8562;SDS011;16392;52.508;13.468;2022-10-16T00:48:06;433.83;;;119.75;;
8562;SDS011;16392;52.508;13.468;2022-10-16T00:50:39;436.92;;;125.63;;
8562;SDS011;16392;52.508;13.468;2022-10-16T00:53:09;435.13;;;121.88;;
8562;SDS011;16392;52.508;13.468;2022-10-16T00:55:37;435.33;;;121.85;;
8562;SDS011;16392;52.508;13.468;2022-10-16T00:58:03;433.13;;;118.10;;
8562;SDS011;16392;52.508;13.468;2022-10-16T01:00:30;435.60;;;125.75;;
8562;SDS011;16392;52.508;13.468;2022-10-16T01:02:58;435.08;;;124.60;;
8562;SDS011;16392;52.508;13.468;2022-10-16T01:05:26;435.10;;;123.25;;
8562;SDS011;16392;52.508;13.468;2022-10-16T01:08:00;435.27;;;120.97;;
8562;SDS011;16392;52.508;13.468;2022-10-16T01:10:37;432.27;;;119.93;;
8562;SDS011;16392;52.508;13.468;2022-10-16T01:13:07;438.35;;;127.05;;
8562;SDS011;16392;52.508;13.468;2022-10-16T01:15:36;433.17;;;124.32;;
8562;SDS011;16392;52.508;13.468;2022-10-16T01:18:08;433.83;;;120.35;;
8562;SDS011;16392;52.508;13.468;2022-10-16T01:20:37;436.75;;;124.63;;
8562;SDS011;16392;52.508;13.468;2022-10-16T01:23:10;440.92;;;130.95;;
8562;SDS011;16392;52.508;13.468;2022-10-16T01:26:05;435.10;;;121.90;;
8562;SDS011;16392;52.508;13.468;2022-10-16T01:28:45;433.13;;;119.50;;
8562;SDS011;16392;52.508;13.468;2022-10-16T01:31:18;437.95;;;128.05;;
8562;SDS011;16392;52.508;13.468;2022-10-16T01:33:50;434.30;;;121.28;;
8562;SDS011;16392;52.508;13.468;2022-10-16T01:36:21;434.77;;;123.13;;
8562;SDS011;16392;52.508;13.468;2022-10-16T01:38:52;434.52;;;124.50;;
8562;SDS011;16392;52.508;13.468;2022-10-16T01:41:22;431.83;;;119.22;;
8562;SDS011;16392;52.508;13.468;2022-10-16T01:43:58;432.58;;;119.70;;
8562;SDS011;16392;52.508;13.468;2022-10-16T01:46:30;433.02;;;120.13;;
8562;SDS011;16392;52.508;13.468;2022-10-16T01:48:58;433.23;;;122.32;;
8562;SDS011;16392;52.508;13.468;2022-10-16T01:51:27;434.50;;;123.20;;
8562;SDS011;16392;52.508;13.468;2022-10-16T01:53:56;430.73;;;117.60;;
8562;SDS011;16392;52.508;13.468;2022-10-16T01:56:25;428.65;;;114.75;;
8562;SDS011;16392;52.508;13.468;2022-10-16T01:58:54;431.02;;;120.10;;
8562;SDS011;16392;52.508;13.468;2022-10-16T02:01:26;430.10;;;112.80;;
8562;SDS011;16392;52.508;13.468;2022-10-16T02:03:55;431.20;;;118.20;;
8562;SDS011;16392;52.508;13.468;2022-10-16T02:06:27;432.95;;;121.40;;
8562;SDS011;16392;52.508;13.468;2022-10-16T02:08:54;437.80;;;134.60;;
8562;SDS011;16392;52.508;13.468;2022-10-16T02:11:21;436.73;;;125.03;;
8562;SDS011;16392;52.508;13.468;2022-10-16T02:13:48;436.13;;;125.35;;
8562;SDS011;16392;52.508;13.468;2022-10-16T02:16:19;436.00;;;126.43;;
8562;SDS011;16392;52.508;13.468;2022-10-16T02:18:47;436.40;;;126.07;;
8562;SDS011;16392;52.508;13.468;2022-10-16T02:21:14;441.08;;;133.93;;
8562;SDS011;16392;52.508;13.468;2022-10-16T02:23:45;437.65;;;125.75;;
8562;SDS011;16392;52.508;13.468;2022-10-16T02:26:18;436.27;;;122.38;;
8562;SDS011;16392;52.508;13.468;2022-10-16T02:28:53;437.60;;;121.72;;
8562;SDS011;16392;52.508;13.468;2022-10-16T02:31:25;434.17;;;121.50;;
8562;SDS011;16392;52.508;13.468;2022-10-16T02:33:56;435.08;;;121.85;;
8562;SDS011;16392;52.508;13.468;2022-10-16T02:36:26;437.30;;;125.18;;
8562;SDS011;16392;52.508;13.468;2022-10-16T02:38:53;440.02;;;130.48;;
8562;SDS011;16392;52.508;13.468;2022-10-16T02:41:20;438.33;;;127.13;;
8562;SDS011;16392;52.508;13.468;2022-10-16T02:43:47;439.38;;;128.93;;
8562;SDS011;16392;52.508;13.468;2022-10-16T02:46:14;436.83;;;122.75;;
8562;SDS011;16392;52.508;13.468;2022-10-16T02:48:40;444.95;;;146.07;;
8562;SDS011;16392;52.508;13.468;2022-10-16T02:51:08;438.52;;;125.65;;
8562;SDS011;16392;52.508;13.468;2022-10-16T02:53:35;438.50;;;126.57;;
8562;SDS011;16392;52.508;13.468;2022-10-16T02:56:02;437.42;;;126.43;;
8562;SDS011;16392;52.508;13.468;2022-10-16T02:58:28;440.30;;;126.95;;
8562;SDS011;16392;52.508;13.468;2022-10-16T03:00:55;439.17;;;126.95;;
8562;SDS011;16392;52.508;13.468;2022-10-16T03:03:22;438.30;;;126.57;;
8562;SDS011;16392;52.508;13.468;2022-10-16T03:05:48;439.88;;;126.25;;
8562;SDS011;16392;52.508;13.468;2022-10-16T03:08:16;437.15;;;121.40;;
8562;SDS011;16392;52.508;13.468;2022-10-16T03:10:48;437.75;;;124.28;;
8562;SDS011;16392;52.508;13.468;2022-10-16T03:13:15;436.80;;;126.80;;
8562;SDS011;16392;52.508;13.468;2022-10-16T03:15:41;439.27;;;132.80;;
8562;SDS011;16392;52.508;13.468;2022-10-16T03:18:08;436.55;;;121.60;;
8562;SDS011;16392;52.508;13.468;2022-10-16T03:20:34;436.88;;;122.70;;
8562;SDS011;16392;52.508;13.468;2022-10-16T03:23:01;435.90;;;125.93;;
8562;SDS011;16392;52.508;13.468;2022-10-16T03:25:29;436.38;;;125.20;;
8562;SDS011;16392;52.508;13.468;2022-10-16T03:27:56;433.83;;;118.93;;
8562;SDS011;16392;52.508;13.468;2022-10-16T03:30:22;435.98;;;121.97;;
8562;SDS011;16392;52.508;13.468;2022-10-16T03:32:49;440.83;;;138.75;;
8562;SDS011;16392;52.508;13.468;2022-10-16T03:35:18;437.77;;;126.57;;
8562;SDS011;16392;52.508;13.468;2022-10-16T03:37:45;434.67;;;123.80;;
8562;SDS011;16392;52.508;13.468;2022-10-16T03:40:12;435.13;;;124.32;;
8562;SDS011;16392;52.508;13.468;2022-10-16T03:42:41;432.45;;;120.50;;
8562;SDS011;16392;52.508;13.468;2022-10-16T03:45:08;431.75;;;115.88;;
8562;SDS011;16392;52.508;13.468;2022-10-16T03:47:36;435.90;;;125.28;;
8562;SDS011;16392;52.508;13.468;2022-10-16T03:50:03;431.67;;;118.07;;
8562;SDS011;16392;52.508;13.468;2022-10-16T03:52:30;433.35;;;122.03;;
8562;SDS011;16392;52.508;13.468;2022-10-16T03:54:58;435.77;;;121.85;;
8562;SDS011;16392;52.508;13.468;2022-10-16T03:57:24;434.92;;;122.15;;
8562;SDS011;16392;52.508;13.468;2022-10-16T03:59:52;434.65;;;123.32;;
8562;SDS011;16392;52.508;13.468;2022-10-16T04:02:19;433.60;;;120.40;;
8562;SDS011;16392;52.508;13.468;2022-10-16T04:04:45;436.40;;;124.00;;
8562;SDS011;16392;52.508;13.468;2022-10-16T04:07:12;431.73;;;118.28;;
8562;SDS011;16392;52.508;13.468;2022-10-16T04:09:39;429.70;;;115.78;;
8562;SDS011;16392;52.508;13.468;2022-10-16T04:12:05;432.77;;;119.57;;
8562;SDS011;16392;52.508;13.468;2022-10-16T04:14:32;431.07;;;117.17;;
8562;SDS011;16392;52.508;13.468;2022-10-16T04:17:03;428.38;;;113.32;;
8562;SDS011;16392;52.508;13.468;2022-10-16T04:19:29;434.75;;;131.98;;
8562;SDS011;16392;52.508;13.468;2022-10-16T04:21:56;430.40;;;115.95;;
8562;SDS011;16392;52.508;13.468;2022-10-16T04:24:23;431.65;;;118.78;;
8562;SDS011;16392;52.508;13.468;2022-10-16T04:26:49;425.92;;;109.30;;
8562;SDS011;16392;52.508;13.468;2022-10-16T04:29:16;432.33;;;118.15;;
8562;SDS011;16392;52.508;13.468;2022-10-16T04:31:42;431.27;;;118.00;;
8562;SDS011;16392;52.508;13.468;2022-10-16T04:34:10;430.73;;;116.88;;
8562;SDS011;16392;52.508;13.468;2022-10-16T04:36:37;431.30;;;122.60;;
8562;SDS011;16392;52.508;13.468;2022-10-16T04:39:03;426.20;;;109.80;;
8562;SDS011;16392;52.508;13.468;2022-10-16T04:41:30;431.27;;;114.45;;
8562;SDS011;16392;52.508;13.468;2022-10-16T04:43:56;430.33;;;117.78;;
8562;SDS011;16392;52.508;13.468;2022-10-16T04:46:23;428.45;;;112.93;;
8562;SDS011;16392;52.508;13.468;2022-10-16T04:48:50;430.85;;;111.13;;
8562;SDS011;16392;52.508;13.468;2022-10-16T04:51:18;429.85;;;115.47;;
8562;SDS011;16392;52.508;13.468;2022-10-16T04:53:44;427.90;;;114.13;;
8562;SDS011;16392;52.508;13.468;2022-10-16T04:56:11;428.20;;;115.15;;
8562;SDS011;16392;52.508;13.468;2022-10-16T04:58:38;429.70;;;115.72;;
8562;SDS011;16392;52.508;13.468;2022-10-16T05:01:04;426.80;;;111.82;;
8562;SDS011;16392;52.508;13.468;2022-10-16T05:03:31;427.60;;;114.80;;
8562;SDS011;16392;52.508;13.468;2022-10-16T05:05:57;430.95;;;120.60;;
8562;SDS011;16392;52.508;13.468;2022-10-16T05:08:26;424.10;;;108.88;;
8562;SDS011;16392;52.508;13.468;2022-10-16T05:10:52;426.60;;;109.95;;
8562;SDS011;16392;52.508;13.468;2022-10-16T05:13:19;427.10;;;112.97;;
8562;SDS011;16392;52.508;13.468;2022-10-16T05:15:46;426.90;;;117.10;;
8562;SDS011;16392;52.508;13.468;2022-10-16T05:18:13;426.42;;;112.60;;
8562;SDS011;16392;52.508;13.468;2022-10-16T05:20:40;430.05;;;111.50;;
8562;SDS011;16392;52.508;13.468;2022-10-16T05:23:07;426.00;;;109.28;;
8562;SDS011;16392;52.508;13.468;2022-10-16T05:25:36;426.17;;;114.43;;
8562;SDS011;16392;52.508;13.468;2022-10-16T05:28:03;427.03;;;109.10;;
8562;SDS011;16392;52.508;13.468;2022-10-16T05:30:30;425.77;;;110.17;;
8562;SDS011;16392;52.508;13.468;2022-10-16T05:32:56;423.77;;;108.72;;
8562;SDS011;16392;52.508;13.468;2022-10-16T05:35:23;424.30;;;105.57;;
8562;SDS011;16392;52.508;13.468;2022-10-16T05:37:49;422.80;;;106.10;;
8562;SDS011;16392;52.508;13.468;2022-10-16T05:40:16;421.75;;;104.30;;
8562;SDS011;16392;52.508;13.468;2022-10-16T05:42:44;419.90;;;101.05;;
8562;SDS011;16392;52.508;13.468;2022-10-16T05:45:10;427.67;;;113.13;;
8562;SDS011;16392;52.508;13.468;2022-10-16T05:47:37;425.73;;;111.83;;
8562;SDS011;16392;52.508;13.468;2022-10-16T05:50:04;423.55;;;107.93;;
8562;SDS011;16392;52.508;13.468;2022-10-16T05:52:31;424.90;;;107.85;;
8562;SDS011;16392;52.508;13.468;2022-10-16T05:54:58;427.00;;;111.93;;
8562;SDS011;16392;52.508;13.468;2022-10-16T05:57:25;428.90;;;114.07;;
8562;SDS011;16392;52.508;13.468;2022-10-16T05:59:52;426.55;;;112.70;;
8562;SDS011;16392;52.508;13.468;2022-10-16T06:02:19;428.63;;;115.82;;
8562;SDS011;16392;52.508;13.468;2022-10-16T06:04:46;428.33;;;115.00;;
8562;SDS011;16392;52.508;13.468;2022-10-16T06:07:12;431.02;;;118.00;;
8562;SDS011;16392;52.508;13.468;2022-10-16T06:09:39;440.02;;;140.85;;
8562;SDS011;16392;52.508;13.468;2022-10-16T06:12:06;432.45;;;117.82;;
8562;SDS011;16392;52.508;13.468;2022-10-16T06:14:32;432.55;;;118.47;;
8562;SDS011;16392;52.508;13.468;2022-10-16T06:17:00;431.30;;;112.75;;
8562;SDS011;16392;52.508;13.468;2022-10-16T06:19:27;435.33;;;123.30;;
8562;SDS011;16392;52.508;13.468;2022-10-16T06:21:53;431.13;;;116.72;;
8562;SDS011;16392;52.508;13.468;2022-10-16T06:24:22;434.58;;;118.65;;
8562;SDS011;16392;52.508;13.468;2022-10-16T06:26:49;433.83;;;120.93;;
8562;SDS011;16392;52.508;13.468;2022-10-16T06:29:16;435.08;;;122.50;;
8562;SDS011;16392;52.508;13.468;2022-10-16T06:31:42;432.38;;;118.30;;
8562;SDS011;16392;52.508;13.468;2022-10-16T06:34:10;433.88;;;117.45;;
8562;SDS011;16392;52.508;13.468;2022-10-16T06:36:37;435.60;;;126.53;;
8562;SDS011;16392;52.508;13.468;2022-10-16T06:39:04;433.77;;;119.22;;
8562;SDS011;16392;52.508;13.468;2022-10-16T06:41:32;443.05;;;147.82;;
8562;SDS011;16392;52.508;13.468;2022-10-16T06:43:59;435.67;;;119.85;;
8562;SDS011;16392;52.508;13.468;2022-10-16T06:46:26;439.52;;;123.40;;
8562;SDS011;16392;52.508;13.468;2022-10-16T06:48:53;439.08;;;127.28;;
8562;SDS011;16392;52.508;13.468;2022-10-16T06:51:22;437.90;;;125.13;;
8562;SDS011;16392;52.508;13.468;2022-10-16T06:53:50;440.13;;;126.05;;
8562;SDS011;16392;52.508;13.468;2022-10-16T06:56:19;440.33;;;129.70;;
8562;SDS011;16392;52.508;13.468;2022-10-16T06:58:46;437.02;;;125.00;;
8562;SDS011;16392;52.508;13.468;2022-10-16T07:01:14;440.05;;;126.53;;
8562;SDS011;16392;52.508;13.468;2022-10-16T07:03:42;442.05;;;131.00;;
8562;SDS011;16392;52.508;13.468;2022-10-16T07:06:11;439.60;;;131.70;;
8562;SDS011;16392;52.508;13.468;2022-10-16T07:08:40;438.85;;;129.88;;
8562;SDS011;16392;52.508;13.468;2022-10-16T07:11:08;436.95;;;124.80;;
8562;SDS011;16392;52.508;13.468;2022-10-16T07:13:37;440.08;;;128.23;;
8562;SDS011;16392;52.508;13.468;2022-10-16T07:16:05;446.80;;;137.50;;
8562;SDS011;16392;52.508;13.468;2022-10-16T07:18:32;448.95;;;140.40;;
8562;SDS011;16392;52.508;13.468;2022-10-16T07:21:02;443.55;;;127.93;;
8562;SDS011;16392;52.508;13.468;2022-10-16T07:23:30;448.90;;;140.55;;
8562;SDS011;16392;52.508;13.468;2022-10-16T07:25:58;453.48;;;148.68;;
8562;SDS011;16392;52.508;13.468;2022-10-16T07:28:25;448.55;;;138.77;;
8562;SDS011;16392;52.508;13.468;2022-10-16T07:30:52;454.17;;;152.77;;
8562;SDS011;16392;52.508;13.468;2022-10-16T07:33:18;452.73;;;147.25;;
8562;SDS011;16392;52.508;13.468;2022-10-16T07:35:49;456.25;;;153.63;;
8562;SDS011;16392;52.508;13.468;2022-10-16T07:38:17;453.33;;;153.95;;
8562;SDS011;16392;52.508;13.468;2022-10-16T07:40:44;454.27;;;151.80;;
8562;SDS011;16392;52.508;13.468;2022-10-16T07:43:12;455.58;;;154.13;;
8562;SDS011;16392;52.508;13.468;2022-10-16T07:45:46;452.10;;;149.15;;
8562;SDS011;16392;52.508;13.468;2022-10-16T07:48:13;452.30;;;150.32;;
8562;SDS011;16392;52.508;13.468;2022-10-16T07:50:39;456.15;;;157.05;;
8562;SDS011;16392;52.508;13.468;2022-10-16T07:53:06;457.00;;;160.40;;
8562;SDS011;16392;52.508;13.468;2022-10-16T07:55:33;458.42;;;160.45;;
8562;SDS011;16392;52.508;13.468;2022-10-16T07:58:00;458.52;;;164.52;;
8562;SDS011;16392;52.508;13.468;2022-10-16T08:00:28;455.73;;;156.52;;
8562;SDS011;16392;52.508;13.468;2022-10-16T08:02:54;458.23;;;160.65;;
8562;SDS011;16392;52.508;13.468;2022-10-16T08:05:25;455.65;;;155.90;;
8562;SDS011;16392;52.508;13.468;2022-10-16T08:07:52;463.13;;;177.68;;
8562;SDS011;16392;52.508;13.468;2022-10-16T08:10:19;464.77;;;183.65;;
8562;SDS011;16392;52.508;13.468;2022-10-16T08:12:48;457.17;;;163.75;;
8562;SDS011;16392;52.508;13.468;2022-10-16T08:15:14;460.17;;;160.02;;
8562;SDS011;16392;52.508;13.468;2022-10-16T08:17:42;455.67;;;156.13;;
8562;SDS011;16392;52.508;13.468;2022-10-16T08:20:10;455.17;;;158.48;;
8562;SDS011;16392;52.508;13.468;2022-10-16T08:22:36;456.77;;;159.45;;
8562;SDS011;16392;52.508;13.468;2022-10-16T08:25:03;458.38;;;161.07;;
8562;SDS011;16392;52.508;13.468;2022-10-16T08:27:30;458.27;;;167.15;;
8562;SDS011;16392;52.508;13.468;2022-10-16T08:29:57;455.08;;;162.05;;
8562;SDS011;16392;52.508;13.468;2022-10-16T08:32:24;459.10;;;164.13;;
8562;SDS011;16392;52.508;13.468;2022-10-16T08:34:52;459.20;;;165.63;;
8562;SDS011;16392;52.508;13.468;2022-10-16T08:37:18;455.27;;;152.80;;
8562;SDS011;16392;52.508;13.468;2022-10-16T08:39:45;459.92;;;164.07;;
8562;SDS011;16392;52.508;13.468;2022-10-16T08:42:15;459.60;;;165.73;;
8562;SDS011;16392;52.508;13.468;2022-10-16T08:45:06;459.10;;;168.88;;
8562;SDS011;16392;52.508;13.468;2022-10-16T08:47:43;455.42;;;156.70;;
8562;SDS011;16392;52.508;13.468;2022-10-16T08:50:18;462.65;;;176.13;;
8562;SDS011;16392;52.508;13.468;2022-10-16T08:52:50;461.88;;;176.70;;
8562;SDS011;16392;52.508;13.468;2022-10-16T08:55:23;460.45;;;170.15;;
8562;SDS011;16392;52.508;13.468;2022-10-16T08:57:58;463.30;;;175.85;;
8562;SDS011;16392;52.508;13.468;2022-10-16T09:00:25;464.10;;;179.50;;
8562;SDS011;16392;52.508;13.468;2022-10-16T09:02:53;461.80;;;177.40;;
8562;SDS011;16392;52.508;13.468;2022-10-16T09:05:41;464.40;;;178.48;;
8562;SDS011;16392;52.508;13.468;2022-10-16T09:08:26;458.40;;;163.57;;
8562;SDS011;16392;52.508;13.468;2022-10-16T09:11:02;462.60;;;174.02;;
8562;SDS011;16392;52.508;13.468;2022-10-16T09:13:39;461.98;;;174.60;;
8562;SDS011;16392;52.508;13.468;2022-10-16T09:16:14;473.17;;;196.48;;
8562;SDS011;16392;52.508;13.468;2022-10-16T09:18:48;473.42;;;207.15;;
8562;SDS011;16392;52.508;13.468;2022-10-16T09:21:23;473.13;;;207.73;;
8562;SDS011;16392;52.508;13.468;2022-10-16T09:23:52;474.20;;;207.50;;
8562;SDS011;16392;52.508;13.468;2022-10-16T09:26:23;477.25;;;221.25;;
8562;SDS011;16392;52.508;13.468;2022-10-16T09:28:51;470.50;;;204.63;;
8562;SDS011;16392;52.508;13.468;2022-10-16T09:31:18;475.25;;;219.95;;
8562;SDS011;16392;52.508;13.468;2022-10-16T09:33:48;477.55;;;227.50;;
8562;SDS011;16392;52.508;13.468;2022-10-16T09:36:18;479.85;;;226.82;;
8562;SDS011;16392;52.508;13.468;2022-10-16T09:38:47;482.08;;;238.77;;
8562;SDS011;16392;52.508;13.468;2022-10-16T09:41:16;479.80;;;231.32;;
8562;SDS011;16392;52.508;13.468;2022-10-16T09:43:49;478.30;;;224.65;;
8562;SDS011;16392;52.508;13.468;2022-10-16T09:46:27;480.48;;;235.27;;
8562;SDS011;16392;52.508;13.468;2022-10-16T09:48:56;482.80;;;249.02;;
8562;SDS011;16392;52.508;13.468;2022-10-16T09:51:25;488.77;;;257.42;;
8562;SDS011;16392;52.508;13.468;2022-10-16T09:53:55;497.60;;;289.13;;
8562;SDS011;16392;52.508;13.468;2022-10-16T09:56:24;491.08;;;272.02;;
8562;SDS011;16392;52.508;13.468;2022-10-16T09:58:52;493.67;;;285.08;;
8562;SDS011;16392;52.508;13.468;2022-10-16T10:01:21;483.58;;;254.13;;
8562;SDS011;16392;52.508;13.468;2022-10-16T10:03:50;491.83;;;280.33;;
8562;SDS011;16392;52.508;13.468;2022-10-16T10:06:20;490.90;;;271.60;;
8562;SDS011;16392;52.508;13.468;2022-10-16T10:09:02;495.27;;;287.40;;
8562;SDS011;16392;52.508;13.468;2022-10-16T10:11:38;496.38;;;294.52;;
8562;SDS011;16392;52.508;13.468;2022-10-16T10:14:21;498.15;;;302.25;;
8562;SDS011;16392;52.508;13.468;2022-10-16T10:16:50;500.67;;;308.00;;
8562;SDS011;16392;52.508;13.468;2022-10-16T10:19:18;495.52;;;297.20;;
8562;SDS011;16392;52.508;13.468;2022-10-16T10:21:47;498.00;;;299.92;;
8562;SDS011;16392;52.508;13.468;2022-10-16T10:24:17;496.13;;;290.65;;
8562;SDS011;16392;52.508;13.468;2022-10-16T10:26:49;493.10;;;287.85;;
8562;SDS011;16392;52.508;13.468;2022-10-16T10:29:25;494.63;;;289.63;;
8562;SDS011;16392;52.508;13.468;2022-10-16T10:32:04;491.30;;;278.27;;
8562;SDS011;16392;52.508;13.468;2022-10-16T10:34:42;493.20;;;282.67;;
8562;SDS011;16392;52.508;13.468;2022-10-16T10:37:23;489.38;;;268.67;;
8562;SDS011;16392;52.508;13.468;2022-10-16T10:40:05;491.25;;;274.05;;
8562;SDS011;16392;52.508;13.468;2022-10-16T10:42:43;487.42;;;263.58;;
8562;SDS011;16392;52.508;13.468;2022-10-16T10:45:18;491.27;;;275.90;;
8562;SDS011;16392;52.508;13.468;2022-10-16T10:47:59;485.45;;;263.58;;
8562;SDS011;16392;52.508;13.468;2022-10-16T10:50:38;490.15;;;272.38;;
8562;SDS011;16392;52.508;13.468;2022-10-16T10:53:11;495.88;;;291.27;;
8562;SDS011;16392;52.508;13.468;2022-10-16T10:55:47;499.48;;;306.52;;
8562;SDS011;16392;52.508;13.468;2022-10-16T10:58:34;500.27;;;314.05;;
8562;SDS011;16392;52.508;13.468;2022-10-16T11:01:09;500.55;;;313.30;;
8562;SDS011;16392;52.508;13.468;2022-10-16T11:03:43;502.13;;;319.80;;
8562;SDS011;16392;52.508;13.468;2022-10-16T11:06:26;506.30;;;334.00;;
8562;SDS011;16392;52.508;13.468;2022-10-16T11:08:57;500.83;;;315.25;;
8562;SDS011;16392;52.508;13.468;2022-10-16T11:11:35;505.30;;;332.55;;
8562;SDS011;16392;52.508;13.468;2022-10-16T11:14:09;507.95;;;347.17;;
8562;SDS011;16392;52.508;13.468;2022-10-16T11:16:42;514.22;;;375.45;;
8562;SDS011;16392;52.508;13.468;2022-10-16T11:19:12;515.35;;;381.65;;
8562;SDS011;16392;52.508;13.468;2022-10-16T11:21:48;515.80;;;383.88;;
8562;SDS011;16392;52.508;13.468;2022-10-16T11:24:23;513.38;;;379.55;;
8562;SDS011;16392;52.508;13.468;2022-10-16T11:27:03;515.92;;;383.02;;
8562;SDS011;16392;52.508;13.468;2022-10-16T11:29:34;512.15;;;369.25;;
8562;SDS011;16392;52.508;13.468;2022-10-16T11:32:10;509.40;;;354.73;;
8562;SDS011;16392;52.508;13.468;2022-10-16T11:34:47;508.58;;;350.10;;
8562;SDS011;16392;52.508;13.468;2022-10-16T11:37:18;506.65;;;343.52;;
8562;SDS011;16392;52.508;13.468;2022-10-16T11:39:49;508.75;;;334.90;;
8562;SDS011;16392;52.508;13.468;2022-10-16T11:42:21;511.95;;;360.70;;
8562;SDS011;16392;52.508;13.468;2022-10-16T11:44:53;506.48;;;346.45;;
8562;SDS011;16392;52.508;13.468;2022-10-16T11:47:30;508.90;;;357.35;;
8562;SDS011;16392;52.508;13.468;2022-10-16T11:50:01;503.77;;;338.17;;
8562;SDS011;16392;52.508;13.468;2022-10-16T11:52:30;506.02;;;341.92;;
8562;SDS011;16392;52.508;13.468;2022-10-16T11:55:05;503.63;;;334.15;;
8562;SDS011;16392;52.508;13.468;2022-10-16T11:57:42;503.33;;;324.48;;
8562;SDS011;16392;52.508;13.468;2022-10-16T12:00:17;501.08;;;320.15;;
8562;SDS011;16392;52.508;13.468;2022-10-16T12:02:50;497.90;;;306.23;;
8562;SDS011;16392;52.508;13.468;2022-10-16T12:05:23;496.38;;;294.92;;
8562;SDS011;16392;52.508;13.468;2022-10-16T12:08:01;497.40;;;297.70;;
8562;SDS011;16392;52.508;13.468;2022-10-16T12:10:36;495.98;;;298.83;;
8562;SDS011;16392;52.508;13.468;2022-10-16T12:16:04;487.15;;;270.80;;
8562;SDS011;16392;52.508;13.468;2022-10-16T12:18:32;487.10;;;262.88;;
8562;SDS011;16392;52.508;13.468;2022-10-16T12:20:59;491.17;;;277.60;;
8562;SDS011;16392;52.508;13.468;2022-10-16T12:23:30;489.85;;;279.27;;
8562;SDS011;16392;52.508;13.468;2022-10-16T12:25:58;498.45;;;300.35;;
8562;SDS011;16392;52.508;13.468;2022-10-16T12:28:27;496.25;;;302.42;;
8562;SDS011;16392;52.508;13.468;2022-10-16T12:30:57;507.42;;;340.48;;
8562;SDS011;16392;52.508;13.468;2022-10-16T12:33:26;504.83;;;327.73;;
8562;SDS011;16392;52.508;13.468;2022-10-16T12:35:54;504.88;;;338.02;;
8562;SDS011;16392;52.508;13.468;2022-10-16T12:38:24;509.23;;;347.13;;
8562;SDS011;16392;52.508;13.468;2022-10-16T12:40:57;505.02;;;344.98;;
8562;SDS011;16392;52.508;13.468;2022-10-16T12:43:27;502.00;;;338.20;;
8562;SDS011;16392;52.508;13.468;2022-10-16T12:46:04;506.65;;;353.45;;
8562;SDS011;16392;52.508;13.468;2022-10-16T12:48:47;509.42;;;360.35;;
8562;SDS011;16392;52.508;13.468;2022-10-16T12:51:22;518.25;;;391.95;;
8562;SDS011;16392;52.508;13.468;2022-10-16T12:54:00;511.83;;;367.02;;
8562;SDS011;16392;52.508;13.468;2022-10-16T12:56:31;513.97;;;380.50;;
8562;SDS011;16392;52.508;13.468;2022-10-16T12:59:09;514.20;;;382.40;;
8562;SDS011;16392;52.508;13.468;2022-10-16T13:01:54;514.10;;;384.02;;
8562;SDS011;16392;52.508;13.468;2022-10-16T13:04:42;523.63;;;412.73;;
8562;SDS011;16392;52.508;13.468;2022-10-16T13:07:27;517.42;;;393.63;;
8562;SDS011;16392;52.508;13.468;2022-10-16T13:10:06;515.88;;;393.25;;
8562;SDS011;16392;52.508;13.468;2022-10-16T13:12:45;514.47;;;381.05;;
8562;SDS011;16392;52.508;13.468;2022-10-16T13:15:26;516.08;;;393.08;;
8562;SDS011;16392;52.508;13.468;2022-10-16T13:18:05;518.92;;;402.75;;
8562;SDS011;16392;52.508;13.468;2022-10-16T13:20:43;519.42;;;405.92;;
8562;SDS011;16392;52.508;13.468;2022-10-16T13:23:22;519.92;;;404.80;;
8562;SDS011;16392;52.508;13.468;2022-10-16T13:25:57;521.88;;;420.60;;
8562;SDS011;16392;52.508;13.468;2022-10-16T13:28:33;523.03;;;421.20;;
8562;SDS011;16392;52.508;13.468;2022-10-16T13:31:01;520.00;;;406.48;;
8562;SDS011;16392;52.508;13.468;2022-10-16T13:33:32;517.72;;;403.98;;
8562;SDS011;16392;52.508;13.468;2022-10-16T13:36:00;515.33;;;385.52;;
8562;SDS011;16392;52.508;13.468;2022-10-16T13:38:27;509.58;;;360.90;;
8562;SDS011;16392;52.508;13.468;2022-10-16T13:40:57;512.10;;;359.58;;
8562;SDS011;16392;52.508;13.468;2022-10-16T13:43:27;506.20;;;343.90;;
8562;SDS011;16392;52.508;13.468;2022-10-16T13:45:59;508.02;;;346.58;;
8562;SDS011;16392;52.508;13.468;2022-10-16T13:48:27;504.67;;;326.73;;
8562;SDS011;16392;52.508;13.468;2022-10-16T13:51:02;502.70;;;325.17;;
8562;SDS011;16392;52.508;13.468;2022-10-16T13:53:31;499.13;;;308.52;;
8562;SDS011;16392;52.508;13.468;2022-10-16T13:56:00;504.08;;;326.63;;
8562;SDS011;16392;52.508;13.468;2022-10-16T13:58:29;494.05;;;290.77;;
8562;SDS011;16392;52.508;13.468;2022-10-16T14:00:56;491.90;;;277.60;;
8562;SDS011;16392;52.508;13.468;2022-10-16T14:03:24;491.77;;;277.42;;
8562;SDS011;16392;52.508;13.468;2022-10-16T14:05:53;493.13;;;282.17;;
8562;SDS011;16392;52.508;13.468;2022-10-16T14:08:24;489.75;;;265.65;;
8562;SDS011;16392;52.508;13.468;2022-10-16T14:10:54;492.80;;;273.50;;
8562;SDS011;16392;52.508;13.468;2022-10-16T14:13:25;492.80;;;271.17;;
8562;SDS011;16392;52.508;13.468;2022-10-16T14:15:55;486.33;;;258.58;;